LFBC 231400Z AUTO 23004KT 150V280 CAVOK 23/03 Q1025
LFBD 231400Z AUTO 03006KT 340V070 CAVOK 23/02 Q1026 NOSIG